createdAt,value
2018-03-29T00:02:10.145Z,5.85
2018-03-29T00:04:38.522Z,5.57
2018-03-29T00:07:06.888Z,6.41
2018-03-29T00:09:35.432Z,7.42
2018-03-29T00:12:03.895Z,6.80
2018-03-29T00:14:32.259Z,6.09
2018-03-29T00:17:00.640Z,5.85
2018-03-29T00:19:29.059Z,5.24
2018-03-29T00:21:57.444Z,5.76
2018-03-29T00:24:25.840Z,5.62
2018-03-29T00:26:54.240Z,6.02
2018-03-29T00:29:22.627Z,6.83
2018-03-29T00:31:51.001Z,5.93
2018-03-29T00:34:19.370Z,5.50
2018-03-29T00:36:47.780Z,5.80
2018-03-29T00:39:16.136Z,5.46
2018-03-29T00:41:44.615Z,5.34
2018-03-29T00:44:13.028Z,5.77
2018-03-29T00:46:41.465Z,6.28
2018-03-29T00:49:09.872Z,5.44
2018-03-29T00:51:38.253Z,6.72
2018-03-29T00:54:06.627Z,6.28
2018-03-29T00:56:34.993Z,6.39
2018-03-29T00:59:03.364Z,6.42
2018-03-29T01:01:31.771Z,6.59
2018-03-29T01:04:00.207Z,5.90
2018-03-29T01:06:28.599Z,5.98
2018-03-29T01:08:57.022Z,5.45
2018-03-29T01:11:25.420Z,5.80
2018-03-29T01:13:53.814Z,5.95
2018-03-29T01:16:22.286Z,5.33
2018-03-29T01:18:50.672Z,5.46
2018-03-29T01:21:19.080Z,5.61
2018-03-29T01:23:47.482Z,5.84
2018-03-29T01:26:15.865Z,6.25
2018-03-29T01:28:44.269Z,6.49
2018-03-29T01:31:12.682Z,6.33
2018-03-29T01:33:41.068Z,5.93
2018-03-29T01:36:09.438Z,6.29
2018-03-29T01:38:37.820Z,6.08
2018-03-29T01:41:06.195Z,6.46
2018-03-29T01:43:34.812Z,5.61
2018-03-29T01:46:03.202Z,5.77
2018-03-29T01:48:31.732Z,6.52
2018-03-29T01:51:00.131Z,6.45
2018-03-29T01:53:28.520Z,6.16
2018-03-29T01:55:56.880Z,7.07
2018-03-29T01:58:25.243Z,6.14
2018-03-29T02:00:53.728Z,6.47
2018-03-29T02:03:22.119Z,7.42
2018-03-29T02:05:50.489Z,7.12
2018-03-29T02:08:18.874Z,7.39
2018-03-29T02:10:47.229Z,7.62
2018-03-29T02:13:15.592Z,6.97
2018-03-29T02:15:43.960Z,6.93
2018-03-29T02:18:12.325Z,6.57
2018-03-29T02:20:40.690Z,7.53
2018-03-29T02:23:09.049Z,6.89
2018-03-29T02:25:37.574Z,6.47
2018-03-29T02:28:05.949Z,6.59
2018-03-29T02:30:34.305Z,6.54
2018-03-29T02:33:02.674Z,7.08
2018-03-29T02:35:31.036Z,5.95
2018-03-29T02:37:59.429Z,6.86
2018-03-29T02:40:27.788Z,7.14
2018-03-29T02:42:56.215Z,7.17
2018-03-29T02:45:24.607Z,7.48
2018-03-29T02:47:52.983Z,6.91
2018-03-29T02:50:21.398Z,7.32
2018-03-29T02:52:49.768Z,7.37
2018-03-29T02:55:18.140Z,6.79
2018-03-29T02:57:46.515Z,6.55
2018-03-29T03:00:33.692Z,7.37
2018-03-29T03:03:02.183Z,6.38
2018-03-29T03:05:30.604Z,6.66
2018-03-29T03:07:58.981Z,6.44
2018-03-29T03:10:27.484Z,5.91
2018-03-29T03:12:55.844Z,6.27
2018-03-29T03:15:24.247Z,6.73
2018-03-29T03:17:52.649Z,6.60
2018-03-29T03:20:21.035Z,6.66
2018-03-29T03:22:49.492Z,7.20
2018-03-29T03:25:17.891Z,6.12
2018-03-29T03:27:46.251Z,6.04
2018-03-29T03:30:14.640Z,6.52
2018-03-29T03:32:43.155Z,6.82
2018-03-29T03:35:11.547Z,6.08
2018-03-29T03:37:39.918Z,6.46
2018-03-29T03:40:08.332Z,7.01
2018-03-29T03:42:36.726Z,7.49
2018-03-29T03:45:05.082Z,6.43
2018-03-29T03:47:33.563Z,6.78
2018-03-29T03:50:02.009Z,7.12
2018-03-29T03:52:30.368Z,7.20
2018-03-29T03:54:58.831Z,6.41
2018-03-29T03:57:27.230Z,6.87
2018-03-29T03:59:55.626Z,7.13
2018-03-29T04:02:24.195Z,7.51
2018-03-29T04:04:52.555Z,6.71
2018-03-29T04:07:20.952Z,7.53
2018-03-29T04:09:49.328Z,7.33
2018-03-29T04:12:17.828Z,7.34
2018-03-29T04:14:46.180Z,6.79
2018-03-29T04:17:14.538Z,7.15
2018-03-29T04:19:42.973Z,6.63
2018-03-29T04:22:11.375Z,7.12
2018-03-29T04:24:39.747Z,6.42
2018-03-29T04:27:08.107Z,6.77
2018-03-29T04:29:36.488Z,6.28
2018-03-29T04:32:04.875Z,6.83
2018-03-29T04:34:33.332Z,6.99
2018-03-29T04:37:01.707Z,7.26
2018-03-29T04:39:30.196Z,6.92
2018-03-29T04:41:58.558Z,7.02
2018-03-29T04:44:26.933Z,7.57
2018-03-29T04:46:55.339Z,7.97
2018-03-29T04:49:23.711Z,6.35
2018-03-29T04:51:52.176Z,7.02
2018-03-29T04:54:20.563Z,6.89
2018-03-29T04:56:49.039Z,6.80
2018-03-29T04:59:17.419Z,7.43
2018-03-29T05:01:45.837Z,7.64
2018-03-29T05:04:14.289Z,7.88
2018-03-29T05:06:42.675Z,6.94
2018-03-29T05:09:11.051Z,7.03
2018-03-29T05:11:39.432Z,7.05
2018-03-29T05:14:07.821Z,7.49
2018-03-29T05:16:36.296Z,7.29
2018-03-29T05:19:04.685Z,7.35
2018-03-29T05:21:33.124Z,7.64
2018-03-29T05:24:01.540Z,7.41
2018-03-29T05:26:35.574Z,7.39
2018-03-29T05:29:03.946Z,7.41
2018-03-29T05:31:32.340Z,7.10
2018-03-29T05:34:00.844Z,7.21
2018-03-29T05:36:29.235Z,6.81
2018-03-29T05:38:57.617Z,8.19
2018-03-29T05:41:26.000Z,6.22
2018-03-29T05:43:54.381Z,6.90
2018-03-29T05:46:22.781Z,7.70
2018-03-29T05:48:51.206Z,7.65
2018-03-29T05:51:19.617Z,7.47
2018-03-29T05:53:48.057Z,8.35
2018-03-29T05:56:16.451Z,7.74
2018-03-29T05:58:44.851Z,7.30
2018-03-29T06:01:13.264Z,7.74
2018-03-29T06:03:41.769Z,7.61
2018-03-29T06:06:10.176Z,7.28
2018-03-29T06:08:38.687Z,7.45
2018-03-29T06:11:07.075Z,7.37
2018-03-29T06:13:35.471Z,6.97
2018-03-29T06:16:04.709Z,7.19
2018-03-29T06:18:33.136Z,6.62
2018-03-29T06:21:01.537Z,6.92
2018-03-29T06:23:30.862Z,7.10
2018-03-29T06:25:59.242Z,7.84
2018-03-29T06:28:27.604Z,7.39
2018-03-29T06:30:56.027Z,7.00
2018-03-29T06:33:24.407Z,7.50
2018-03-29T06:35:52.838Z,7.71
2018-03-29T06:38:21.241Z,7.30
2018-03-29T06:40:49.681Z,7.17
2018-03-29T06:43:18.068Z,7.88
2018-03-29T06:45:46.484Z,8.02
2018-03-29T06:48:14.868Z,7.45
2018-03-29T06:50:43.297Z,8.25
2018-03-29T06:53:11.692Z,7.29
2018-03-29T06:55:40.075Z,7.08
2018-03-29T06:58:08.617Z,6.81
2018-03-29T07:00:37.018Z,7.47
2018-03-29T07:03:05.442Z,7.80
2018-03-29T07:05:33.855Z,8.03
2018-03-29T07:08:02.277Z,7.60
2018-03-29T07:10:30.667Z,7.27
2018-03-29T07:12:59.115Z,7.44
2018-03-29T07:15:27.591Z,7.81
2018-03-29T07:17:55.981Z,7.72
2018-03-29T07:20:24.404Z,7.65
2018-03-29T07:22:52.832Z,7.21
2018-03-29T07:25:21.340Z,7.66
2018-03-29T07:27:49.755Z,8.16
2018-03-29T07:30:18.183Z,7.64
2018-03-29T07:32:46.559Z,8.46
2018-03-29T07:35:14.924Z,8.65
2018-03-29T07:37:43.426Z,9.25
2018-03-29T07:40:11.853Z,8.33
2018-03-29T07:42:40.323Z,7.94
2018-03-29T07:45:08.881Z,9.60
2018-03-29T07:47:37.456Z,8.96
2018-03-29T07:50:05.831Z,9.21
2018-03-29T07:52:34.200Z,9.49
2018-03-29T07:55:02.643Z,9.11
2018-03-29T07:57:31.045Z,9.38
2018-03-29T07:59:59.444Z,10.60
2018-03-29T08:02:27.977Z,11.31
2018-03-29T08:04:56.383Z,11.50
2018-03-29T08:07:24.923Z,13.42
2018-03-29T08:09:53.397Z,14.10
2018-03-29T08:12:21.907Z,14.61
2018-03-29T08:14:50.298Z,13.96
2018-03-29T08:17:18.723Z,14.66
2018-03-29T08:19:47.132Z,14.86
2018-03-29T08:22:15.572Z,14.74
2018-03-29T08:24:43.995Z,13.97
2018-03-29T08:27:12.479Z,14.92
2018-03-29T08:29:41.037Z,14.89
2018-03-29T08:32:09.474Z,14.48
2018-03-29T08:34:37.893Z,14.12
2018-03-29T08:37:06.936Z,12.39
2018-03-29T08:39:35.332Z,12.93
2018-03-29T08:42:03.728Z,12.40
2018-03-29T08:44:32.215Z,12.62
2018-03-29T08:47:00.709Z,11.59
2018-03-29T08:49:29.157Z,10.72
2018-03-29T08:51:57.600Z,10.73
2018-03-29T08:54:25.963Z,10.16
2018-03-29T08:56:54.342Z,9.95
2018-03-29T08:59:22.705Z,9.79
2018-03-29T09:01:51.088Z,9.41
2018-03-29T09:04:19.466Z,9.21
2018-03-29T09:06:47.917Z,10.12
2018-03-29T09:09:16.287Z,9.38
2018-03-29T09:11:44.665Z,9.14
2018-03-29T09:14:13.122Z,8.18
2018-03-29T09:16:41.536Z,8.70
2018-03-29T09:19:10.052Z,8.95
2018-03-29T09:21:38.504Z,9.54
2018-03-29T09:24:06.877Z,8.95
2018-03-29T09:26:35.378Z,9.53
2018-03-29T09:29:03.760Z,8.46
2018-03-29T09:31:32.273Z,8.66
2018-03-29T09:34:00.699Z,7.73
2018-03-29T09:36:29.203Z,8.05
2018-03-29T09:38:57.563Z,8.72
2018-03-29T09:41:25.963Z,8.68
2018-03-29T09:43:54.388Z,8.46
2018-03-29T09:46:22.761Z,7.45
2018-03-29T09:48:51.124Z,8.76
2018-03-29T09:51:19.646Z,8.53
2018-03-29T09:53:48.051Z,8.90
2018-03-29T09:56:16.531Z,8.74
2018-03-29T09:58:44.899Z,8.89
2018-03-29T10:01:13.349Z,9.29
2018-03-29T10:06:47.920Z,8.12
2018-03-29T10:09:16.737Z,8.18
2018-03-29T10:11:45.324Z,8.48
2018-03-29T10:14:13.818Z,8.78
2018-03-29T10:16:42.189Z,8.98
2018-03-29T10:19:10.681Z,9.41
2018-03-29T10:21:39.237Z,9.04
2018-03-29T10:24:07.967Z,9.45
2018-03-29T10:26:36.313Z,9.61
2018-03-29T10:29:04.761Z,9.04
2018-03-29T10:31:33.144Z,9.44
2018-03-29T10:34:01.684Z,9.75
2018-03-29T10:36:30.195Z,9.76
2018-03-29T10:38:58.609Z,10.05
2018-03-29T10:41:27.055Z,9.08
2018-03-29T10:43:55.427Z,10.16
2018-03-29T10:46:23.793Z,9.41
2018-03-29T10:48:52.316Z,8.95
2018-03-29T10:51:20.694Z,9.68
2018-03-29T10:53:49.068Z,9.75
2018-03-29T10:56:17.637Z,9.89
2018-03-29T10:58:46.020Z,9.50
2018-03-29T11:01:14.400Z,10.61
2018-03-29T11:03:42.985Z,11.69
2018-03-29T11:06:11.506Z,11.05
2018-03-29T11:08:39.923Z,10.83
2018-03-29T11:11:11.664Z,11.35
2018-03-29T11:13:40.100Z,12.09
2018-03-29T11:16:08.562Z,14.15
2018-03-29T11:18:37.020Z,13.73
2018-03-29T11:21:05.434Z,12.49
2018-03-29T11:23:33.816Z,12.29
2018-03-29T11:26:02.453Z,10.63
2018-03-29T11:28:30.843Z,11.17
2018-03-29T11:30:59.250Z,12.05
2018-03-29T11:33:27.928Z,13.45
2018-03-29T11:35:56.304Z,13.40
2018-03-29T11:38:24.756Z,13.39
2018-03-29T11:40:53.249Z,13.90
2018-03-29T11:43:21.569Z,12.88
2018-03-29T11:45:50.042Z,12.60
2018-03-29T11:48:18.524Z,12.03
2018-03-29T11:50:46.999Z,11.18
2018-03-29T11:53:15.453Z,12.65
2018-03-29T11:55:43.838Z,13.18
2018-03-29T11:58:12.240Z,13.73
2018-03-29T12:00:40.748Z,14.91
2018-03-29T12:03:09.166Z,15.14
2018-03-29T12:05:37.656Z,13.65
2018-03-29T12:08:06.156Z,12.70
2018-03-29T12:10:34.596Z,11.76
2018-03-29T12:13:03.013Z,11.74
2018-03-29T12:15:31.501Z,10.88
2018-03-29T12:17:59.904Z,11.24
2018-03-29T12:20:28.297Z,11.11
2018-03-29T12:22:56.857Z,10.13
2018-03-29T12:25:25.282Z,10.67
2018-03-29T12:27:53.648Z,10.57
2018-03-29T12:30:22.164Z,10.16
2018-03-29T12:32:50.623Z,10.32
2018-03-29T12:35:19.011Z,11.27
2018-03-29T12:37:47.436Z,11.49
2018-03-29T12:40:15.863Z,11.92
2018-03-29T12:42:44.272Z,12.45
2018-03-29T12:45:12.640Z,12.89
2018-03-29T12:47:41.427Z,12.96
2018-03-29T12:50:14.545Z,12.75
2018-03-29T12:52:43.001Z,12.72
2018-03-29T12:55:23.092Z,12.23
2018-03-29T12:57:57.944Z,11.77
2018-03-29T13:00:26.344Z,11.24
2018-03-29T13:02:54.698Z,11.76
2018-03-29T13:05:23.188Z,11.68
2018-03-29T13:07:51.554Z,11.13
2018-03-29T13:10:19.977Z,10.88
2018-03-29T13:12:48.403Z,10.47
2018-03-29T13:15:16.783Z,10.64
2018-03-29T13:17:45.218Z,10.22
2018-03-29T13:20:13.737Z,10.31
2018-03-29T13:22:42.244Z,10.18
2018-03-29T13:25:10.714Z,11.15
2018-03-29T13:27:39.228Z,10.59
2018-03-29T13:30:07.675Z,10.27
2018-03-29T13:32:36.075Z,11.18
2018-03-29T13:35:04.545Z,10.40
2018-03-29T13:37:32.934Z,10.63
2018-03-29T13:40:01.339Z,10.04
2018-03-29T13:42:29.779Z,10.89
2018-03-29T13:44:58.833Z,11.20
2018-03-29T13:47:27.485Z,11.03
2018-03-29T13:49:55.886Z,10.90
2018-03-29T13:52:24.320Z,11.33
2018-03-29T13:54:52.785Z,12.00
2018-03-29T13:57:21.172Z,11.56
2018-03-29T13:59:49.587Z,10.94
2018-03-29T14:02:18.052Z,9.93
2018-03-29T14:04:46.467Z,9.90
2018-03-29T14:07:14.843Z,9.54
2018-03-29T14:09:43.333Z,9.06
2018-03-29T14:12:11.731Z,8.50
2018-03-29T14:14:40.140Z,8.87
2018-03-29T14:17:09.311Z,8.66
2018-03-29T14:19:37.695Z,8.55
2018-03-29T14:22:06.284Z,8.52
2018-03-29T14:24:34.732Z,9.33
2018-03-29T14:27:03.237Z,9.22
2018-03-29T14:29:31.622Z,9.02
2018-03-29T14:32:00.063Z,9.73
2018-03-29T14:34:28.504Z,10.10
2018-03-29T14:36:56.950Z,10.18
2018-03-29T14:39:25.443Z,10.30
2018-03-29T14:41:53.923Z,10.20
2018-03-29T14:44:22.341Z,9.52
2018-03-29T14:46:50.825Z,9.42
2018-03-29T14:49:19.238Z,9.24
2018-03-29T14:51:47.631Z,9.17
2018-03-29T14:54:16.143Z,8.72
2018-03-29T14:56:44.516Z,9.29
2018-03-29T14:59:12.989Z,9.42
2018-03-29T15:01:41.456Z,9.67
2018-03-29T15:04:09.841Z,9.12
2018-03-29T15:06:38.231Z,9.07
2018-03-29T15:09:06.689Z,9.24
2018-03-29T15:11:35.052Z,8.94
2018-03-29T15:14:03.404Z,9.38
2018-03-29T15:16:31.813Z,10.32
2018-03-29T15:19:00.159Z,9.48
2018-03-29T15:21:28.531Z,9.73
2018-03-29T15:23:57.027Z,9.92
2018-03-29T15:26:25.434Z,10.35
2018-03-29T15:28:53.760Z,10.68
2018-03-29T15:31:22.236Z,10.48
2018-03-29T15:33:50.588Z,10.29
2018-03-29T15:36:18.968Z,11.00
2018-03-29T15:38:47.408Z,10.61
2018-03-29T15:41:15.830Z,10.11
2018-03-29T15:43:44.201Z,10.48
2018-03-29T15:46:12.659Z,10.51
2018-03-29T15:48:41.015Z,10.19
2018-03-29T15:51:09.438Z,9.96
2018-03-29T15:53:38.050Z,9.92
2018-03-29T15:56:06.434Z,10.49
2018-03-29T15:58:34.828Z,10.59
2018-03-29T16:01:03.308Z,10.86
2018-03-29T16:03:31.699Z,11.18
2018-03-29T16:06:00.103Z,11.18
2018-03-29T16:08:28.542Z,11.11
2018-03-29T16:10:56.930Z,11.28
2018-03-29T16:13:25.389Z,11.57
2018-03-29T16:15:53.943Z,11.52
2018-03-29T16:18:22.347Z,10.63
2018-03-29T16:20:50.743Z,10.60
2018-03-29T16:23:19.159Z,10.97
2018-03-29T16:25:47.583Z,11.09
2018-03-29T16:28:16.131Z,10.32
2018-03-29T16:30:44.514Z,11.05
2018-03-29T16:33:12.894Z,10.95
2018-03-29T16:35:41.828Z,10.36
2018-03-29T16:38:10.340Z,9.96
2018-03-29T16:40:38.992Z,9.78
2018-03-29T16:43:07.556Z,10.06
2018-03-29T16:45:36.049Z,9.95
2018-03-29T16:48:04.435Z,10.24
2018-03-29T16:50:32.906Z,9.81
2018-03-29T16:53:01.289Z,10.17
2018-03-29T16:55:29.775Z,9.88
2018-03-29T16:57:58.262Z,10.31
2018-03-29T17:00:26.663Z,10.24
2018-03-29T17:02:55.094Z,10.59
2018-03-29T17:05:23.528Z,10.14
2018-03-29T17:07:51.954Z,10.31
2018-03-29T17:10:20.331Z,10.21
2018-03-29T17:12:48.784Z,10.56
2018-03-29T17:15:18.215Z,10.59
2018-03-29T17:17:46.629Z,10.56
2018-03-29T17:20:15.178Z,10.27
2018-03-29T17:22:43.559Z,10.44
2018-03-29T17:25:12.050Z,10.56
2018-03-29T17:27:40.498Z,10.20
2018-03-29T17:30:08.901Z,10.35
2018-03-29T17:32:37.287Z,10.54
2018-03-29T17:35:05.808Z,10.46
2018-03-29T17:37:34.222Z,10.30
2018-03-29T17:40:03.110Z,10.04
2018-03-29T17:42:32.206Z,10.03
2018-03-29T17:45:00.575Z,9.83
2018-03-29T17:47:28.947Z,9.83
2018-03-29T17:49:57.392Z,9.92
2018-03-29T17:52:25.769Z,9.55
2018-03-29T17:54:54.174Z,9.16
2018-03-29T17:57:22.580Z,9.00
2018-03-29T17:59:51.155Z,9.13
2018-03-29T18:02:19.522Z,9.32
2018-03-29T18:04:47.883Z,9.39
2018-03-29T18:07:16.314Z,9.24
2018-03-29T18:09:45.458Z,9.40
2018-03-29T18:12:13.848Z,9.33
2018-03-29T18:14:42.300Z,8.98
2018-03-29T18:17:10.678Z,8.77
2018-03-29T18:19:39.084Z,9.09
2018-03-29T18:22:07.490Z,9.23
2018-03-29T18:24:36.051Z,9.36
2018-03-29T18:27:04.536Z,9.18
2018-03-29T18:29:32.949Z,9.25
2018-03-29T18:32:01.334Z,9.24
2018-03-29T18:34:29.796Z,9.16
2018-03-29T18:36:58.163Z,9.10
2018-03-29T18:39:26.526Z,8.84
2018-03-29T18:41:55.041Z,8.50
2018-03-29T18:44:23.405Z,8.76
2018-03-29T18:46:51.849Z,8.27
2018-03-29T18:49:20.281Z,8.37
2018-03-29T18:51:48.631Z,8.54
2018-03-29T18:54:17.095Z,8.44
2018-03-29T18:56:45.514Z,8.25
2018-03-29T18:59:13.917Z,8.14
2018-03-29T19:01:42.351Z,8.26
2018-03-29T19:04:10.707Z,8.10
2018-03-29T19:06:39.102Z,8.00
2018-03-29T19:09:07.576Z,7.95
2018-03-29T19:11:35.949Z,8.12
2018-03-29T19:14:04.352Z,7.90
2018-03-29T19:16:32.753Z,7.43
2018-03-29T19:19:01.189Z,8.07
2018-03-29T19:21:29.728Z,8.03
2018-03-29T19:23:58.140Z,7.85
2018-03-29T19:26:26.546Z,8.05
2018-03-29T19:28:54.970Z,7.79
2018-03-29T19:31:23.332Z,7.62
2018-03-29T19:33:51.856Z,7.83
2018-03-29T19:36:20.749Z,7.67
2018-03-29T19:38:49.584Z,7.61
2018-03-29T19:41:17.986Z,7.79
2018-03-29T19:43:46.446Z,7.58
2018-03-29T19:46:14.847Z,7.35
2018-03-29T19:48:43.332Z,7.51
2018-03-29T19:51:11.880Z,7.70
2018-03-29T19:53:40.988Z,7.42
2018-03-29T19:56:09.414Z,7.30
2018-03-29T19:58:37.925Z,7.33
2018-03-29T20:01:06.311Z,7.37
2018-03-29T20:03:34.729Z,7.62
2018-03-29T20:06:04.051Z,7.29
2018-03-29T20:08:32.433Z,7.21
2018-03-29T20:11:00.905Z,7.38
2018-03-29T20:13:29.304Z,7.51
2018-03-29T20:15:57.667Z,7.62
2018-03-29T20:18:26.054Z,7.61
2018-03-29T20:20:54.514Z,7.35
2018-03-29T20:23:22.951Z,7.42
2018-03-29T20:25:51.319Z,7.25
2018-03-29T20:28:19.679Z,7.51
2018-03-29T20:30:48.106Z,7.47
2018-03-29T20:33:16.469Z,7.68
2018-03-29T20:35:44.846Z,7.78
2018-03-29T20:38:13.367Z,7.48
2018-03-29T20:40:41.745Z,7.54
2018-03-29T20:43:10.142Z,7.72
2018-03-29T20:45:38.660Z,7.80
2018-03-29T20:48:07.095Z,7.42
2018-03-29T20:50:35.489Z,7.52
2018-03-29T20:53:03.923Z,7.25
2018-03-29T20:55:32.342Z,7.23
2018-03-29T20:58:00.899Z,7.66
2018-03-29T21:00:29.371Z,7.71
2018-03-29T21:02:57.759Z,7.10
2018-03-29T21:05:26.160Z,7.41
2018-03-29T21:07:54.772Z,7.62
2018-03-29T21:10:23.152Z,7.08
2018-03-29T21:12:51.555Z,7.30
2018-03-29T21:15:20.087Z,7.24
2018-03-29T21:17:48.476Z,7.00
2018-03-29T21:20:17.276Z,7.27
2018-03-29T21:22:46.189Z,7.34
2018-03-29T21:25:14.755Z,7.38
2018-03-29T21:27:43.234Z,7.32
2018-03-29T21:30:11.687Z,7.26
2018-03-29T21:32:40.084Z,6.99
2018-03-29T21:35:08.515Z,7.16
2018-03-29T21:37:37.018Z,7.20
2018-03-29T21:40:05.445Z,7.37
2018-03-29T21:42:33.836Z,7.00
2018-03-29T21:45:02.264Z,7.00
2018-03-29T21:47:30.645Z,6.76
2018-03-29T21:49:59.035Z,7.03
2018-03-29T21:52:27.502Z,6.89
2018-03-29T21:54:56.209Z,6.86
2018-03-29T21:57:25.020Z,6.93
2018-03-29T21:59:53.560Z,6.90
2018-03-29T22:02:22.165Z,7.10
2018-03-29T22:04:50.620Z,7.05
2018-03-29T22:07:19.217Z,6.85
2018-03-29T22:09:47.702Z,6.81
2018-03-29T22:12:16.109Z,6.65
2018-03-29T22:14:44.604Z,6.89
2018-03-29T22:17:13.074Z,6.94
2018-03-29T22:19:41.467Z,6.99
2018-03-29T22:22:09.976Z,7.11
2018-03-29T22:24:38.338Z,7.01
2018-03-29T22:27:06.713Z,7.07
2018-03-29T22:29:35.276Z,7.20
2018-03-29T22:32:03.637Z,7.00
2018-03-29T22:34:32.004Z,6.96
2018-03-29T22:37:00.404Z,6.93
2018-03-29T22:39:28.868Z,6.92
2018-03-29T22:41:57.271Z,6.82
2018-03-29T22:44:25.812Z,6.90
2018-03-29T22:46:54.176Z,6.79
2018-03-29T22:49:22.573Z,6.72
2018-03-29T22:51:51.044Z,6.71
2018-03-29T22:54:19.426Z,6.90
2018-03-29T22:56:47.840Z,6.56
2018-03-29T22:59:16.308Z,6.80
2018-03-29T23:01:44.692Z,6.79
2018-03-29T23:04:13.060Z,6.94
2018-03-29T23:06:41.636Z,6.59
2018-03-29T23:09:10.053Z,6.61
2018-03-29T23:11:38.488Z,6.94
2018-03-29T23:14:06.997Z,6.80
2018-03-29T23:16:39.007Z,6.80
2018-03-29T23:19:09.318Z,6.93
2018-03-29T23:21:37.715Z,6.76
2018-03-29T23:24:06.104Z,7.00
2018-03-29T23:26:34.647Z,6.65
2018-03-29T23:29:03.027Z,6.41
2018-03-29T23:31:31.380Z,6.48
2018-03-29T23:33:59.910Z,6.74
2018-03-29T23:36:28.345Z,5.95
2018-03-29T23:38:56.733Z,6.51
2018-03-29T23:41:25.372Z,6.54
2018-03-29T23:43:53.892Z,6.95
2018-03-29T23:46:22.292Z,7.18
2018-03-29T23:48:50.743Z,7.16
2018-03-29T23:51:19.233Z,7.28
2018-03-29T23:53:47.663Z,7.22
2018-03-29T23:56:16.100Z,6.88
2018-03-29T23:58:44.466Z,6.70
